createdAt,value
2019-05-14T00:00:56.204Z,1030.17
2019-05-14T00:01:56.197Z,1030.19
2019-05-14T00:02:56.163Z,1030.16
2019-05-14T00:03:56.153Z,1030.15
2019-05-14T00:04:56.144Z,1030.16
2019-05-14T00:05:56.147Z,1030.17
2019-05-14T00:06:56.123Z,1030.21
2019-05-14T00:07:56.179Z,1030.18
2019-05-14T00:08:56.100Z,1030.21
2019-05-14T00:09:56.086Z,1030.15
2019-05-14T00:10:56.106Z,1030.15
2019-05-14T00:11:56.084Z,1030.13
2019-05-14T00:12:56.054Z,1030.17
2019-05-14T00:13:56.052Z,1030.11
2019-05-14T00:14:56.087Z,1030.12
2019-05-14T00:15:56.041Z,1030.09
2019-05-14T00:16:56.021Z,1030.08
2019-05-14T00:17:56.021Z,1030.11
2019-05-14T00:18:55.992Z,1030.10
2019-05-14T00:20:06.233Z,1030.09
2019-05-14T00:20:57.050Z,1030.07
2019-05-14T00:21:55.970Z,1030.06
2019-05-14T00:22:55.952Z,1030.02
2019-05-14T00:23:55.937Z,1030.06
2019-05-14T00:24:55.931Z,1030.10
2019-05-14T00:25:55.940Z,1030.09
2019-05-14T00:26:55.928Z,1030.05
2019-05-14T00:27:55.890Z,1030.08
2019-05-14T00:28:55.888Z,1030.05
2019-05-14T00:29:55.878Z,1030.08
2019-05-14T00:30:55.880Z,1030.09
2019-05-14T00:31:55.904Z,1030.04
2019-05-14T00:32:55.910Z,1030.02
2019-05-14T00:33:55.846Z,1030.04
2019-05-14T00:34:55.815Z,1030.01
2019-05-14T00:35:55.816Z,1029.97
2019-05-14T00:36:55.814Z,1030.00
2019-05-14T00:37:55.802Z,1029.98
2019-05-14T00:38:55.778Z,1030.01
2019-05-14T00:39:55.764Z,1030.03
2019-05-14T00:40:55.805Z,1030.02
2019-05-14T00:41:55.733Z,1030.04
2019-05-14T00:42:55.730Z,1030.02
2019-05-14T00:43:55.723Z,1030.05
2019-05-14T00:44:58.015Z,1030.00
2019-05-14T00:45:55.725Z,1029.93
2019-05-14T00:46:55.699Z,1029.98
2019-05-14T00:47:55.678Z,1029.91
2019-05-14T00:48:55.675Z,1029.96
2019-05-14T00:49:55.708Z,1029.94
2019-05-14T00:50:55.679Z,1029.96
2019-05-14T00:51:55.651Z,1030.02
2019-05-14T00:52:55.685Z,1029.91
2019-05-14T00:53:55.628Z,1029.93
2019-05-14T00:54:55.635Z,1029.90
2019-05-14T00:55:55.590Z,1029.91
2019-05-14T00:56:55.629Z,1029.91
2019-05-14T00:57:55.559Z,1029.93
2019-05-14T00:58:55.552Z,1029.95
2019-05-14T00:59:55.554Z,1029.95
2019-05-14T01:00:55.564Z,1029.91
2019-05-14T01:01:55.551Z,1029.93
2019-05-14T01:02:55.506Z,1029.86
2019-05-14T01:03:55.520Z,1029.88
2019-05-14T01:04:55.500Z,1029.94
2019-05-14T01:05:55.482Z,1029.96
2019-05-14T01:06:55.478Z,1029.95
2019-05-14T01:07:55.460Z,1029.95
2019-05-14T01:08:55.446Z,1029.97
2019-05-14T01:09:55.438Z,1029.98
2019-05-14T01:10:55.640Z,1029.96
2019-05-14T01:11:55.442Z,1029.96
2019-05-14T01:12:55.408Z,1029.98
2019-05-14T01:13:55.407Z,1029.96
2019-05-14T01:15:06.943Z,1029.91
2019-05-14T01:15:56.453Z,1029.95
2019-05-14T01:16:55.392Z,1029.95
2019-05-14T01:17:55.349Z,1029.89
2019-05-14T01:18:55.368Z,1029.90
2019-05-14T01:19:55.334Z,1029.86
2019-05-14T01:20:55.370Z,1029.85
2019-05-14T01:21:55.328Z,1029.88
2019-05-14T01:22:55.308Z,1029.88
2019-05-14T01:23:55.290Z,1029.92
2019-05-14T01:24:55.290Z,1029.94
2019-05-14T01:25:55.271Z,1029.91
2019-05-14T01:26:55.268Z,1029.92
2019-05-14T01:27:55.250Z,1029.90
2019-05-14T01:28:55.223Z,1029.91
2019-05-14T01:29:55.225Z,1029.98
2019-05-14T01:30:55.201Z,1029.99
2019-05-14T01:31:55.227Z,1029.85
2019-05-14T01:32:55.191Z,1029.94
2019-05-14T01:33:55.174Z,1029.94
2019-05-14T01:34:55.206Z,1029.91
2019-05-14T01:35:55.156Z,1029.94
2019-05-14T01:36:55.176Z,1029.94
2019-05-14T01:37:55.145Z,1029.91
2019-05-14T01:38:55.124Z,1029.89
2019-05-14T01:39:55.113Z,1029.91
2019-05-14T01:40:55.105Z,1029.83
2019-05-14T01:41:55.110Z,1029.91
2019-05-14T01:42:55.085Z,1029.94
2019-05-14T01:43:55.134Z,1029.92
2019-05-14T01:44:55.062Z,1029.94
2019-05-14T01:45:55.051Z,1029.92
2019-05-14T01:46:55.094Z,1029.91
2019-05-14T01:47:55.025Z,1029.89
2019-05-14T01:48:55.031Z,1029.89
2019-05-14T01:49:55.009Z,1029.91
2019-05-14T01:50:54.998Z,1029.97
2019-05-14T01:51:55.008Z,1029.95
2019-05-14T01:52:55.012Z,1029.96
2019-05-14T01:53:54.971Z,1029.97
2019-05-14T01:54:54.960Z,1029.98
2019-05-14T01:55:54.979Z,1029.98
2019-05-14T01:56:54.965Z,1029.92
2019-05-14T01:57:54.923Z,1029.95
2019-05-14T01:58:54.962Z,1029.90
2019-05-14T01:59:54.909Z,1029.94
2019-05-14T02:00:54.896Z,1029.94
2019-05-14T02:01:54.896Z,1029.97
2019-05-14T02:02:54.913Z,1029.99
2019-05-14T02:03:54.865Z,1029.91
2019-05-14T02:04:54.851Z,1029.91
2019-05-14T02:05:54.835Z,1029.99
2019-05-14T02:06:54.867Z,1030.01
2019-05-14T02:07:54.818Z,1029.94
2019-05-14T02:08:54.865Z,1029.96
2019-05-14T02:09:54.807Z,1029.99
2019-05-14T02:10:54.768Z,1029.94
2019-05-14T02:11:54.774Z,1029.94
2019-05-14T02:12:54.795Z,1029.92
2019-05-14T02:13:54.752Z,1029.93
2019-05-14T02:14:54.750Z,1029.91
2019-05-14T02:15:54.726Z,1029.94
2019-05-14T02:16:54.766Z,1029.93
2019-05-14T02:17:54.717Z,1029.91
2019-05-14T02:18:54.699Z,1029.98
2019-05-14T02:19:54.684Z,1029.92
2019-05-14T02:20:54.662Z,1029.94
2019-05-14T02:21:54.692Z,1029.94
2019-05-14T02:22:54.678Z,1029.94
2019-05-14T02:23:54.638Z,1029.97
2019-05-14T02:24:54.658Z,1029.91
2019-05-14T02:25:54.621Z,1029.90
2019-05-14T02:26:54.632Z,1029.94
2019-05-14T02:27:54.668Z,1029.87
2019-05-14T02:28:54.593Z,1029.95
2019-05-14T02:29:54.568Z,1029.96
2019-05-14T02:30:59.043Z,1029.97
2019-05-14T02:31:55.627Z,1029.91
2019-05-14T02:32:54.582Z,1029.93
2019-05-14T02:33:54.539Z,1029.95
2019-05-14T02:34:54.530Z,1029.94
2019-05-14T02:35:54.514Z,1029.96
2019-05-14T02:36:54.500Z,1029.88
2019-05-14T02:37:54.627Z,1029.92
2019-05-14T02:38:54.520Z,1029.85
2019-05-14T02:39:54.473Z,1029.85
2019-05-14T02:40:54.461Z,1029.85
2019-05-14T02:41:54.458Z,1029.83
2019-05-14T02:42:54.447Z,1029.88
2019-05-14T02:43:54.439Z,1029.83
2019-05-14T02:44:54.411Z,1029.84
2019-05-14T02:46:09.068Z,1029.85
2019-05-14T02:46:55.405Z,1029.83
2019-05-14T02:47:54.413Z,1029.78
2019-05-14T02:48:54.385Z,1029.82
2019-05-14T02:49:54.362Z,1029.82
2019-05-14T02:50:54.353Z,1029.85
2019-05-14T02:51:54.329Z,1029.82
2019-05-14T02:52:54.417Z,1029.78
2019-05-14T02:53:54.334Z,1029.83
2019-05-14T02:54:54.307Z,1029.81
2019-05-14T02:55:54.335Z,1029.88
2019-05-14T02:56:54.288Z,1029.80
2019-05-14T02:57:54.293Z,1029.87
2019-05-14T02:58:54.269Z,1029.82
2019-05-14T02:59:54.256Z,1029.82
2019-05-14T03:00:54.242Z,1029.82
2019-05-14T03:01:54.236Z,1029.90
2019-05-14T03:02:54.231Z,1029.90
2019-05-14T03:03:54.204Z,1029.85
2019-05-14T03:04:54.211Z,1029.88
2019-05-14T03:05:54.197Z,1029.86
2019-05-14T03:06:54.228Z,1029.86
2019-05-14T03:07:54.198Z,1029.83
2019-05-14T03:08:54.163Z,1029.89
2019-05-14T03:09:54.140Z,1029.83
2019-05-14T03:10:54.145Z,1029.86
2019-05-14T03:11:54.139Z,1029.84
2019-05-14T03:12:54.188Z,1029.87
2019-05-14T03:13:54.108Z,1029.89
2019-05-14T03:14:54.098Z,1029.86
2019-05-14T03:15:54.074Z,1029.90
2019-05-14T03:16:54.091Z,1029.90
2019-05-14T03:17:54.159Z,1029.85
2019-05-14T03:18:54.071Z,1029.90
2019-05-14T03:19:54.047Z,1029.93
2019-05-14T03:20:54.096Z,1029.94
2019-05-14T03:21:54.012Z,1029.88
2019-05-14T03:23:02.966Z,1029.86
2019-05-14T03:23:55.017Z,1029.90
2019-05-14T03:24:53.989Z,1029.90
2019-05-14T03:25:53.984Z,1029.81
2019-05-14T03:26:53.962Z,1029.85
2019-05-14T03:27:53.984Z,1029.83
2019-05-14T03:28:53.937Z,1029.85
2019-05-14T03:29:53.933Z,1029.88
2019-05-14T03:30:53.945Z,1029.88
2019-05-14T03:31:53.947Z,1029.92
2019-05-14T03:32:54.017Z,1029.87
2019-05-14T03:33:53.927Z,1029.91
2019-05-14T03:34:54.442Z,1029.87
2019-05-14T03:36:01.155Z,1029.84
2019-05-14T03:36:54.847Z,1029.81
2019-05-14T03:37:53.915Z,1029.84
2019-05-14T03:38:53.827Z,1029.83
2019-05-14T03:39:53.855Z,1029.80
2019-05-14T03:40:53.806Z,1029.84
2019-05-14T03:41:53.795Z,1029.89
2019-05-14T03:42:53.819Z,1029.80
2019-05-14T03:43:53.789Z,1029.82
2019-05-14T03:44:53.772Z,1029.86
2019-05-14T03:45:53.774Z,1029.91
2019-05-14T03:46:56.025Z,1029.94
2019-05-14T03:47:54.801Z,1029.88
2019-05-14T03:48:53.741Z,1029.92
2019-05-14T03:49:53.739Z,1029.85
2019-05-14T03:50:53.746Z,1029.87
2019-05-14T03:51:53.700Z,1029.89
2019-05-14T03:52:53.719Z,1029.89
2019-05-14T03:54:01.675Z,1029.92
2019-05-14T03:54:54.681Z,1029.98
2019-05-14T03:55:53.674Z,1029.94
2019-05-14T03:56:53.637Z,1029.91
2019-05-14T03:57:53.629Z,1029.96
2019-05-14T03:58:53.678Z,1029.91
2019-05-14T03:59:53.613Z,1029.90
2019-05-14T04:00:53.590Z,1029.90
2019-05-14T04:01:53.593Z,1029.89
2019-05-14T04:02:53.567Z,1029.93
2019-05-14T04:03:53.598Z,1029.86
2019-05-14T04:04:53.602Z,1029.89
2019-05-14T04:05:53.545Z,1029.97
2019-05-14T04:06:53.534Z,1029.90
2019-05-14T04:07:53.584Z,1029.88
2019-05-14T04:08:53.602Z,1029.89
2019-05-14T04:09:53.540Z,1029.89
2019-05-14T04:10:54.409Z,1029.82
2019-05-14T04:11:53.520Z,1029.84
2019-05-14T04:12:53.503Z,1029.80
2019-05-14T04:13:53.494Z,1029.83
2019-05-14T04:14:53.440Z,1029.85
2019-05-14T04:15:53.434Z,1029.83
2019-05-14T04:17:05.355Z,1029.78
2019-05-14T04:17:54.451Z,1029.80
2019-05-14T04:18:53.432Z,1029.78
2019-05-14T04:19:53.390Z,1029.73
2019-05-14T04:20:53.399Z,1029.77
2019-05-14T04:21:53.434Z,1029.79
2019-05-14T04:22:53.358Z,1029.78
2019-05-14T04:23:53.383Z,1029.79
2019-05-14T04:24:53.359Z,1029.80
2019-05-14T04:25:53.338Z,1029.81
2019-05-14T04:27:05.799Z,1029.86
2019-05-14T04:27:54.294Z,1029.82
2019-05-14T04:28:53.318Z,1029.90
2019-05-14T04:29:53.361Z,1029.85
2019-05-14T04:30:53.265Z,1029.84
2019-05-14T04:31:53.265Z,1029.86
2019-05-14T04:32:53.323Z,1029.88
2019-05-14T04:33:53.306Z,1029.87
2019-05-14T04:34:53.253Z,1029.93
2019-05-14T04:35:53.210Z,1029.91
2019-05-14T04:36:53.200Z,1029.95
2019-05-14T04:37:53.207Z,1030.07
2019-05-14T04:38:55.295Z,1030.02
2019-05-14T04:39:53.215Z,1030.06
2019-05-14T04:40:53.166Z,1030.04
2019-05-14T04:41:53.151Z,1030.09
2019-05-14T04:42:53.133Z,1030.13
2019-05-14T04:43:53.161Z,1030.12
2019-05-14T04:44:53.127Z,1030.11
2019-05-14T04:45:53.103Z,1030.15
2019-05-14T04:46:53.087Z,1030.11
2019-05-14T04:47:53.083Z,1030.17
2019-05-14T04:48:53.078Z,1030.09
2019-05-14T04:49:53.153Z,1030.10
2019-05-14T04:50:53.073Z,1030.18
2019-05-14T04:51:53.056Z,1030.17
2019-05-14T04:52:53.082Z,1030.07
2019-05-14T04:53:53.030Z,1030.07
2019-05-14T04:54:53.023Z,1030.06
2019-05-14T04:55:52.996Z,1030.08
2019-05-14T04:56:53.018Z,1030.07
2019-05-14T04:57:52.979Z,1030.09
2019-05-14T04:58:52.977Z,1030.07
2019-05-14T04:59:52.992Z,1030.03
2019-05-14T05:00:52.962Z,1030.09
2019-05-14T05:01:52.937Z,1030.11
2019-05-14T05:02:52.927Z,1030.13
2019-05-14T05:03:52.930Z,1030.13
2019-05-14T05:04:52.951Z,1030.11
2019-05-14T05:05:52.900Z,1030.06
2019-05-14T05:06:52.956Z,1030.14
2019-05-14T05:07:52.902Z,1030.12
2019-05-14T05:08:52.888Z,1030.15
2019-05-14T05:09:52.913Z,1030.12
2019-05-14T05:10:52.884Z,1030.16
2019-05-14T05:11:52.871Z,1030.13
2019-05-14T05:12:52.823Z,1030.10
2019-05-14T05:13:52.828Z,1030.13
2019-05-14T05:14:52.809Z,1030.13
2019-05-14T05:15:52.818Z,1030.18
2019-05-14T05:16:52.773Z,1030.13
2019-05-14T05:17:53.286Z,1030.14
2019-05-14T05:18:52.799Z,1030.17
2019-05-14T05:19:52.748Z,1030.08
2019-05-14T05:20:52.729Z,1030.10
2019-05-14T05:21:52.729Z,1030.13
2019-05-14T05:22:52.700Z,1030.19
2019-05-14T05:23:52.691Z,1030.18
2019-05-14T05:24:52.739Z,1030.18
2019-05-14T05:25:52.697Z,1030.18
2019-05-14T05:26:52.698Z,1030.19
2019-05-14T05:27:52.691Z,1030.17
2019-05-14T05:29:03.759Z,1030.20
2019-05-14T05:29:53.652Z,1030.12
2019-05-14T05:30:52.620Z,1030.21
2019-05-14T05:31:52.623Z,1030.18
2019-05-14T05:32:52.588Z,1030.19
2019-05-14T05:33:52.604Z,1030.19
2019-05-14T05:34:52.579Z,1030.27
2019-05-14T05:35:52.565Z,1030.26
2019-05-14T05:36:52.581Z,1030.25
2019-05-14T05:37:52.541Z,1030.33
2019-05-14T05:38:52.521Z,1030.31
2019-05-14T05:39:52.581Z,1030.35
2019-05-14T05:40:52.507Z,1030.30
2019-05-14T05:41:52.501Z,1030.33
2019-05-14T05:42:52.491Z,1030.38
2019-05-14T05:43:52.491Z,1030.32
2019-05-14T05:44:52.546Z,1030.29
2019-05-14T05:45:52.465Z,1030.32
2019-05-14T05:46:52.432Z,1030.32
2019-05-14T05:47:58.005Z,1030.24
2019-05-14T05:48:53.456Z,1030.32
2019-05-14T05:49:52.472Z,1030.34
2019-05-14T05:50:52.397Z,1030.33
2019-05-14T05:51:52.379Z,1030.30
2019-05-14T05:52:53.866Z,1030.30
2019-05-14T05:53:52.393Z,1030.33
2019-05-14T05:54:52.411Z,1030.26
2019-05-14T05:55:52.350Z,1030.27
2019-05-14T05:56:52.338Z,1030.26
2019-05-14T05:57:52.313Z,1030.33
2019-05-14T05:58:52.345Z,1030.30
2019-05-14T05:59:52.367Z,1030.25
2019-05-14T06:00:52.293Z,1030.23
2019-05-14T06:01:54.276Z,1030.33
2019-05-14T06:02:52.284Z,1030.28
2019-05-14T06:03:52.272Z,1030.25
2019-05-14T06:04:52.280Z,1030.26
2019-05-14T06:05:52.228Z,1030.26
2019-05-14T06:06:52.214Z,1030.23
2019-05-14T06:07:52.230Z,1030.26
2019-05-14T06:08:52.198Z,1030.21
2019-05-14T06:09:52.204Z,1030.27
2019-05-14T06:10:52.187Z,1030.30
2019-05-14T06:11:52.167Z,1030.25
2019-05-14T06:12:52.220Z,1030.21
2019-05-14T06:13:52.144Z,1030.20
2019-05-14T06:14:52.252Z,1030.24
2019-05-14T06:15:52.575Z,1030.22
2019-05-14T06:16:52.112Z,1030.34
2019-05-14T06:17:52.098Z,1030.17
2019-05-14T06:18:52.097Z,1030.21
2019-05-14T06:19:52.077Z,1030.26
2019-05-14T06:20:52.092Z,1030.28
2019-05-14T06:21:52.075Z,1030.25
2019-05-14T06:22:52.076Z,1030.26
2019-05-14T06:23:52.117Z,1030.30
2019-05-14T06:24:52.054Z,1030.25
2019-05-14T06:25:52.061Z,1030.23
2019-05-14T06:26:52.001Z,1030.23
2019-05-14T06:27:52.006Z,1030.27
2019-05-14T06:28:51.982Z,1030.23
2019-05-14T06:29:54.428Z,1030.25
2019-05-14T06:30:51.995Z,1030.19
2019-05-14T06:31:51.951Z,1030.15
2019-05-14T06:32:51.940Z,1030.13
2019-05-14T06:33:51.949Z,1030.22
2019-05-14T06:34:51.922Z,1030.28
2019-05-14T06:35:51.921Z,1030.16
2019-05-14T06:36:51.889Z,1030.18
2019-05-14T06:37:51.892Z,1030.21
2019-05-14T06:38:51.869Z,1030.22
2019-05-14T06:39:51.864Z,1030.15
2019-05-14T06:40:51.892Z,1030.21
2019-05-14T06:41:51.843Z,1030.25
2019-05-14T06:42:51.858Z,1030.19
2019-05-14T06:43:51.832Z,1030.13
2019-05-14T06:44:51.808Z,1030.19
2019-05-14T06:45:51.824Z,1030.21
2019-05-14T06:46:52.899Z,1030.26
2019-05-14T06:47:51.771Z,1030.24
2019-05-14T06:48:51.755Z,1030.24
2019-05-14T06:49:51.764Z,1030.27
2019-05-14T06:50:51.772Z,1030.24
2019-05-14T06:51:51.739Z,1030.15
2019-05-14T06:52:51.734Z,1030.24
2019-05-14T06:53:51.706Z,1030.30
2019-05-14T06:54:51.696Z,1030.19
2019-05-14T06:55:51.734Z,1030.29
2019-05-14T06:56:51.678Z,1030.25
2019-05-14T06:57:51.657Z,1030.22
2019-05-14T06:58:51.651Z,1030.22
2019-05-14T06:59:51.661Z,1030.20
2019-05-14T07:00:51.678Z,1030.25
2019-05-14T07:01:51.643Z,1030.23
2019-05-14T07:02:51.639Z,1030.23
2019-05-14T07:03:51.618Z,1030.18
2019-05-14T07:04:51.604Z,1030.21
2019-05-14T07:05:51.598Z,1030.26
2019-05-14T07:06:51.596Z,1030.26
2019-05-14T07:07:51.559Z,1030.17
2019-05-14T07:08:52.779Z,1030.30
2019-05-14T07:09:51.573Z,1030.26
2019-05-14T07:10:51.533Z,1030.33
2019-05-14T07:11:51.570Z,1030.27
2019-05-14T07:12:51.513Z,1030.24
2019-05-14T07:13:51.491Z,1030.28
2019-05-14T07:14:51.486Z,1030.23
2019-05-14T07:15:51.494Z,1030.28
2019-05-14T07:16:51.496Z,1030.25
2019-05-14T07:17:51.447Z,1030.20
2019-05-14T07:18:54.100Z,1030.29
2019-05-14T07:19:51.446Z,1030.24
2019-05-14T07:20:51.416Z,1030.17
2019-05-14T07:21:51.451Z,1030.17
2019-05-14T07:22:51.477Z,1030.21
2019-05-14T07:23:51.383Z,1030.27
2019-05-14T07:24:51.381Z,1030.31
2019-05-14T07:25:51.411Z,1030.29
2019-05-14T07:26:51.377Z,1030.24
2019-05-14T07:27:51.368Z,1030.23
2019-05-14T07:28:51.322Z,1030.29
2019-05-14T07:29:51.323Z,1030.28
2019-05-14T07:30:51.330Z,1030.29
2019-05-14T07:31:51.343Z,1030.26
2019-05-14T07:32:51.312Z,1030.26
2019-05-14T07:33:51.292Z,1030.18
2019-05-14T07:34:51.273Z,1030.16
2019-05-14T07:35:51.264Z,1030.18
2019-05-14T07:36:51.262Z,1030.22
2019-05-14T07:37:51.238Z,1030.21
2019-05-14T07:38:51.214Z,1030.19
2019-05-14T07:39:51.233Z,1030.21
2019-05-14T07:40:51.203Z,1030.11
2019-05-14T07:41:51.254Z,1030.18
2019-05-14T07:42:51.173Z,1030.13
2019-05-14T07:43:51.182Z,1030.12
2019-05-14T07:44:51.153Z,1030.13
2019-05-14T07:45:51.147Z,1030.17
2019-05-14T07:46:51.150Z,1030.12
2019-05-14T07:47:51.204Z,1030.14
2019-05-14T07:49:04.337Z,1030.16
2019-05-14T07:49:52.159Z,1030.13
2019-05-14T07:50:52.029Z,1030.18
2019-05-14T07:51:51.075Z,1030.13
2019-05-14T07:52:51.160Z,1030.18
2019-05-14T07:53:51.071Z,1030.18
2019-05-14T07:54:51.136Z,1030.22
2019-05-14T07:55:51.035Z,1030.06
2019-05-14T07:56:52.959Z,1030.11
2019-05-14T07:57:51.041Z,1030.01
2019-05-14T07:58:51.004Z,1030.06
2019-05-14T07:59:51.024Z,1030.02
2019-05-14T08:00:51.017Z,1030.03
2019-05-14T08:01:51.007Z,1030.03
2019-05-14T08:02:51.026Z,1030.03
2019-05-14T08:03:50.970Z,1030.01
2019-05-14T08:04:50.930Z,1030.04
2019-05-14T08:05:50.921Z,1030.01
2019-05-14T08:06:50.916Z,1030.08
2019-05-14T08:07:50.966Z,1029.96
2019-05-14T08:08:50.929Z,1030.04
2019-05-14T08:09:50.880Z,1029.96
2019-05-14T08:10:50.885Z,1030.05
2019-05-14T08:11:50.859Z,1030.01
2019-05-14T08:12:50.934Z,1029.96
2019-05-14T08:13:50.841Z,1029.95
2019-05-14T08:15:13.079Z,1029.95
2019-05-14T08:15:51.825Z,1029.92
2019-05-14T08:16:50.822Z,1029.90
2019-05-14T08:17:50.819Z,1029.93
2019-05-14T08:18:50.779Z,1029.94
2019-05-14T08:19:50.812Z,1029.86
2019-05-14T08:20:50.757Z,1029.89
2019-05-14T08:21:50.760Z,1029.87
2019-05-14T08:22:50.791Z,1029.86
2019-05-14T08:23:50.722Z,1029.80
2019-05-14T08:24:50.764Z,1029.88
2019-05-14T08:25:50.705Z,1029.86
2019-05-14T08:26:50.699Z,1029.83
2019-05-14T08:27:50.753Z,1029.77
2019-05-14T08:28:50.670Z,1029.78
2019-05-14T08:29:50.663Z,1029.81
2019-05-14T08:30:50.657Z,1029.79
2019-05-14T08:31:50.633Z,1029.82
2019-05-14T08:32:50.658Z,1029.79
2019-05-14T08:33:50.643Z,1029.84
2019-05-14T08:34:50.621Z,1029.84
2019-05-14T08:35:50.610Z,1029.80
2019-05-14T08:36:50.642Z,1029.79
2019-05-14T08:38:04.677Z,1029.73
2019-05-14T08:38:51.566Z,1029.67
2019-05-14T08:39:50.564Z,1029.69
2019-05-14T08:40:50.546Z,1029.65
2019-05-14T08:41:59.470Z,1029.63
2019-05-14T08:42:51.550Z,1029.64
2019-05-14T08:43:50.507Z,1029.65
2019-05-14T08:44:51.370Z,1029.60
2019-05-14T08:45:50.497Z,1029.63
2019-05-14T08:46:50.479Z,1029.62
2019-05-14T08:47:50.460Z,1029.67
2019-05-14T08:48:50.518Z,1029.65
2019-05-14T08:49:51.082Z,1029.62
2019-05-14T08:50:50.432Z,1029.70
2019-05-14T08:51:50.428Z,1029.75
2019-05-14T08:52:50.475Z,1029.69
2019-05-14T08:53:50.746Z,1029.62
2019-05-14T08:55:05.596Z,1029.57
2019-05-14T08:55:51.395Z,1029.68
2019-05-14T08:56:50.392Z,1029.59
2019-05-14T08:57:50.423Z,1029.59
2019-05-14T08:58:50.396Z,1029.60
2019-05-14T08:59:50.324Z,1029.54
2019-05-14T09:00:50.323Z,1029.53
2019-05-14T09:02:02.317Z,1029.53
2019-05-14T09:02:51.297Z,1029.47
2019-05-14T09:03:50.315Z,1029.50
2019-05-14T09:04:53.814Z,1029.44
2019-05-14T09:05:50.264Z,1029.58
2019-05-14T09:06:50.292Z,1029.58
2019-05-14T09:07:50.249Z,1029.55
2019-05-14T09:08:50.263Z,1029.56
2019-05-14T09:09:50.266Z,1029.46
2019-05-14T09:10:50.225Z,1029.56
2019-05-14T09:11:50.561Z,1029.55
2019-05-14T09:12:50.183Z,1029.47
2019-05-14T09:13:50.236Z,1029.57
2019-05-14T09:14:50.175Z,1029.47
2019-05-14T09:15:50.166Z,1029.47
2019-05-14T09:16:51.242Z,1029.48
2019-05-14T09:17:50.150Z,1029.48
2019-05-14T09:18:50.180Z,1029.48
2019-05-14T09:20:02.027Z,1029.48
2019-05-14T09:20:51.118Z,1029.38
2019-05-14T09:21:50.102Z,1029.43
2019-05-14T09:22:50.077Z,1029.47
2019-05-14T09:23:50.164Z,1029.47
2019-05-14T09:24:50.061Z,1029.39
2019-05-14T09:25:53.208Z,1029.36
2019-05-14T09:26:50.037Z,1029.49
2019-05-14T09:27:50.038Z,1029.46
2019-05-14T09:28:50.037Z,1029.42
2019-05-14T09:29:50.007Z,1029.39
2019-05-14T09:30:49.998Z,1029.34
2019-05-14T09:31:49.984Z,1029.29
2019-05-14T09:32:49.970Z,1029.36
2019-05-14T09:33:50.004Z,1029.31
2019-05-14T09:34:49.994Z,1029.33
2019-05-14T09:35:49.960Z,1029.28
2019-05-14T09:36:49.950Z,1029.34
2019-05-14T09:37:51.357Z,1029.34
2019-05-14T09:38:49.956Z,1029.31
2019-05-14T09:39:49.892Z,1029.30
2019-05-14T09:41:05.681Z,1029.35
2019-05-14T09:41:50.881Z,1029.35
2019-05-14T09:42:50.253Z,1029.31
2019-05-14T09:43:49.891Z,1029.33
2019-05-14T09:44:49.840Z,1029.35
2019-05-14T09:45:49.839Z,1029.25
2019-05-14T09:46:50.089Z,1029.27
2019-05-14T09:47:50.762Z,1029.29
2019-05-14T09:48:49.823Z,1029.23
2019-05-14T09:49:49.803Z,1029.20
2019-05-14T09:50:49.780Z,1029.26
2019-05-14T09:51:49.761Z,1029.21
2019-05-14T09:52:49.758Z,1029.23
2019-05-14T09:53:49.748Z,1029.25
2019-05-14T09:54:49.786Z,1029.26
2019-05-14T09:55:49.731Z,1029.27
2019-05-14T09:56:49.708Z,1029.18
2019-05-14T09:57:49.717Z,1029.22
2019-05-14T09:58:49.911Z,1029.13
2019-05-14T09:59:49.694Z,1029.24
2019-05-14T10:00:49.665Z,1029.15
2019-05-14T10:01:50.629Z,1029.18
2019-05-14T10:02:49.672Z,1029.13
2019-05-14T10:03:49.837Z,1029.17
2019-05-14T10:04:49.644Z,1029.09
2019-05-14T10:05:50.138Z,1029.06
2019-05-14T10:06:49.594Z,1029.13
2019-05-14T10:07:49.752Z,1029.17
2019-05-14T10:08:49.601Z,1029.23
2019-05-14T10:09:49.575Z,1029.22
2019-05-14T10:10:49.582Z,1029.18
2019-05-14T10:11:49.548Z,1029.12
2019-05-14T10:12:54.105Z,1029.18
2019-05-14T10:13:50.531Z,1029.28
2019-05-14T10:14:49.531Z,1029.12
2019-05-14T10:15:49.501Z,1029.18
2019-05-14T10:16:49.509Z,1029.14
2019-05-14T10:17:50.117Z,1029.22
2019-05-14T10:18:52.683Z,1029.10
2019-05-14T10:19:50.032Z,1029.07
2019-05-14T10:20:49.655Z,1029.13
2019-05-14T10:21:49.523Z,1029.07
2019-05-14T10:22:49.439Z,1029.12
2019-05-14T10:23:49.444Z,1029.08
2019-05-14T10:24:49.414Z,1029.00
2019-05-14T10:25:49.409Z,1029.06
2019-05-14T10:26:49.495Z,1028.98
2019-05-14T10:27:49.375Z,1028.93
2019-05-14T10:28:49.358Z,1029.10
2019-05-14T10:29:49.351Z,1028.96
2019-05-14T10:30:49.377Z,1029.01
2019-05-14T10:31:49.371Z,1029.11
2019-05-14T10:32:49.419Z,1029.06
2019-05-14T10:33:49.306Z,1029.07
2019-05-14T10:34:49.296Z,1029.14
2019-05-14T10:35:49.278Z,1029.03
2019-05-14T10:36:49.308Z,1029.14
2019-05-14T10:37:49.284Z,1029.06
2019-05-14T10:38:49.254Z,1029.04
2019-05-14T10:39:49.250Z,1029.05
2019-05-14T10:40:49.221Z,1029.06
2019-05-14T10:41:49.241Z,1029.10
2019-05-14T10:42:49.553Z,1028.96
2019-05-14T10:43:49.803Z,1028.92
2019-05-14T10:44:49.192Z,1028.93
2019-05-14T10:45:49.494Z,1028.93
2019-05-14T10:46:49.225Z,1029.01
2019-05-14T10:47:49.516Z,1028.95
2019-05-14T10:48:49.137Z,1028.83
2019-05-14T10:49:49.141Z,1028.82
2019-05-14T10:50:59.153Z,1028.81
2019-05-14T10:51:50.161Z,1028.88
2019-05-14T10:52:49.177Z,1028.91
2019-05-14T10:53:49.265Z,1028.86
2019-05-14T10:54:55.910Z,1028.83
2019-05-14T10:55:50.068Z,1028.92
2019-05-14T10:56:49.537Z,1028.93
2019-05-14T10:57:54.171Z,1028.83
2019-05-14T10:58:50.098Z,1028.87
2019-05-14T10:59:49.017Z,1028.80
2019-05-14T11:00:49.596Z,1028.89
2019-05-14T11:01:49.081Z,1028.92
2019-05-14T11:02:49.272Z,1028.88
2019-05-14T11:03:49.010Z,1028.84
2019-05-14T11:04:48.980Z,1029.20
2019-05-14T11:05:48.957Z,1028.86
2019-05-14T11:06:49.233Z,1028.86
2019-05-14T11:07:48.941Z,1028.79
2019-05-14T11:08:49.414Z,1028.74
2019-05-14T11:09:48.938Z,1028.72
2019-05-14T11:10:49.745Z,1028.79
2019-05-14T11:11:48.913Z,1028.79
2019-05-14T11:12:50.649Z,1028.72
2019-05-14T11:13:48.869Z,1028.75
2019-05-14T11:14:49.433Z,1028.74
2019-05-14T11:15:48.959Z,1028.70
2019-05-14T11:16:48.860Z,1028.72
2019-05-14T11:17:49.025Z,1028.71
2019-05-14T11:18:49.753Z,1028.69
2019-05-14T11:19:48.805Z,1028.77
2019-05-14T11:20:51.604Z,1028.70
2019-05-14T11:21:48.850Z,1028.64
2019-05-14T11:22:49.244Z,1028.64
2019-05-14T11:23:49.245Z,1028.72
2019-05-14T11:24:49.292Z,1028.76
2019-05-14T11:25:48.895Z,1028.70
2019-05-14T11:26:49.045Z,1028.74
2019-05-14T11:27:49.335Z,1028.72
2019-05-14T11:28:49.285Z,1028.83
2019-05-14T11:29:49.262Z,1028.70
2019-05-14T11:30:49.516Z,1028.69
2019-05-14T11:31:48.822Z,1028.79
2019-05-14T11:32:49.262Z,1028.70
2019-05-14T11:33:49.695Z,1028.69
2019-05-14T11:34:48.649Z,1028.69
2019-05-14T11:35:48.620Z,1028.70
2019-05-14T11:36:49.692Z,1028.67
2019-05-14T11:37:48.616Z,1028.70
2019-05-14T11:38:50.552Z,1028.70
2019-05-14T11:39:48.885Z,1028.74
2019-05-14T11:40:49.564Z,1028.72
2019-05-14T11:41:49.268Z,1028.71
2019-05-14T11:42:49.495Z,1028.69
2019-05-14T11:43:49.525Z,1028.68
2019-05-14T11:44:48.865Z,1028.61
2019-05-14T11:45:48.715Z,1028.68
2019-05-14T11:46:57.235Z,1028.64
2019-05-14T11:47:49.494Z,1028.65
2019-05-14T11:48:49.226Z,1028.68
2019-05-14T11:49:49.217Z,1028.65
2019-05-14T11:50:49.140Z,1028.65
2019-05-14T11:52:00.696Z,1028.66
2019-05-14T11:52:49.492Z,1028.57
2019-05-14T11:53:49.411Z,1028.58
2019-05-14T11:54:49.406Z,1028.62
2019-05-14T11:55:50.337Z,1028.55
2019-05-14T11:56:48.442Z,1028.56
2019-05-14T11:57:48.654Z,1028.58
2019-05-14T11:58:48.423Z,1028.59
2019-05-14T11:59:48.366Z,1028.56
2019-05-14T12:00:48.355Z,1028.66
2019-05-14T12:01:49.376Z,1028.65
2019-05-14T12:02:48.353Z,1028.60
2019-05-14T12:03:50.267Z,1028.56
2019-05-14T12:04:48.334Z,1028.55
2019-05-14T12:05:49.406Z,1028.61